Time;durP1;ratioP1;P1;durP2;ratioP2;P2;SDS_P1;SDS_P2;PMS_P1;PMS_P2;Temp;Humidity;BMP_temperature;BMP_pressure;BME280_temperature;BME280_humidity;BME280_pressure;Samples;Min_cycle;Max_cycle;Signal;HPM_P1;HPM_P2
2023/01/12 00:02:26;;;;;;;29.40;14.70;;;;;;;-3.16;96.17;101838.17;109099;1250;59728;-71
2023/01/12 00:04:55;;;;;;;34.60;15.30;;;;;;;-3.14;96.30;101837.33;109185;1250;71823;-71
2023/01/12 00:07:23;;;;;;;31.90;14.80;;;;;;;-3.16;97.06;101836.45;109187;1250;72858;-70
2023/01/12 00:09:52;;;;;;;31.30;14.50;;;;;;;-3.09;96.97;101830.17;109154;1250;70775;-70
2023/01/12 00:12:21;;;;;;;28.80;13.30;;;;;;;-3.10;96.52;101833.73;109056;1254;72507;-70
2023/01/12 00:14:51;;;;;;;26.30;10.40;;;;;;;-3.19;96.76;101835.61;109162;1250;62120;-70
2023/01/12 00:17:21;;;;;;;33.70;14.40;;;;;;;-3.11;96.62;101826.93;109160;1254;61622;-71
2023/01/12 00:19:50;;;;;;;32.40;13.70;;;;;;;-3.13;97.06;101817.73;109062;1254;72263;-69
2023/01/12 00:22:19;;;;;;;30.10;12.80;;;;;;;-3.18;96.96;101808.51;109120;1250;71917;-70
2023/01/12 00:24:48;;;;;;;30.00;13.40;;;;;;;-3.23;97.34;101803.90;109139;1254;69597;-71
2023/01/12 00:27:19;;;;;;;28.40;13.20;;;;;;;-3.25;97.32;101792.30;109043;1254;72524;-71
2023/01/12 00:29:49;;;;;;;29.00;14.20;;;;;;;-3.17;97.34;101790.61;108803;1255;61291;-70
2023/01/12 00:32:19;;;;;;;30.50;12.90;;;;;;;-3.23;97.37;101790.27;108986;1254;60330;-70
2023/01/12 00:34:48;;;;;;;31.80;13.70;;;;;;;-3.17;97.05;101786.20;108906;1255;72884;-70
2023/01/12 00:37:18;;;;;;;30.90;14.30;;;;;;;-3.16;97.94;101787.73;109084;1251;72576;-71
2023/01/12 00:39:47;;;;;;;31.70;14.20;;;;;;;-3.19;97.81;101800.51;109153;1254;68281;-69
2023/01/12 00:45:22;;;;;;;32.30;13.00;;;;;;;-3.16;97.20;101810.55;109134;1254;59731;-70
2023/01/12 00:47:52;;;;;;;39.90;14.60;;;;;;;-3.12;97.57;101811.08;109133;1250;59301;-70
2023/01/12 00:50:21;;;;;;;29.80;14.00;;;;;;;-3.15;97.67;101816.36;109117;1252;72386;-71
2023/01/12 00:52:50;;;;;;;30.10;12.30;;;;;;;-3.21;97.54;101819.41;109075;1255;72195;-70
2023/01/12 00:55:19;;;;;;;27.60;12.00;;;;;;;-3.10;97.96;101821.30;109138;1254;70982;-70
2023/01/12 00:57:48;;;;;;;25.50;13.10;;;;;;;-3.13;97.31;101819.77;109088;1254;71916;-70
2023/01/12 01:00:17;;;;;;;25.20;12.70;;;;;;;-3.14;97.16;101815.16;109116;1254;60499;-70
2023/01/12 01:02:46;;;;;;;28.60;12.90;;;;;;;-3.08;97.58;101816.20;109139;1254;59643;-71
2023/01/12 01:05:16;;;;;;;31.10;13.50;;;;;;;-3.04;97.34;101810.58;109088;1254;72373;-70
2023/01/12 01:07:46;;;;;;;25.30;9.70;;;;;;;-2.96;97.73;101803.08;109144;1251;71108;-70
2023/01/12 01:10:15;;;;;;;27.20;12.70;;;;;;;-3.06;96.88;101798.98;109154;1251;69768;-70
2023/01/12 01:12:44;;;;;;;25.60;12.50;;;;;;;-3.05;97.63;101799.49;108888;1255;72278;-70
2023/01/12 01:15:13;;;;;;;29.00;12.60;;;;;;;-3.03;97.81;101798.30;109108;1253;60588;-71
2023/01/12 01:17:42;;;;;;;26.00;12.20;;;;;;;-2.98;97.62;101795.23;109169;1251;59573;-70
2023/01/12 01:20:11;;;;;;;29.90;13.10;;;;;;;-2.92;97.12;101791.84;109210;1250;74927;-70
2023/01/12 01:22:40;;;;;;;24.90;11.40;;;;;;;-2.98;96.50;101788.77;109166;1251;69952;-70
2023/01/12 01:25:09;;;;;;;23.80;11.00;;;;;;;-3.03;96.71;101790.46;109170;1250;69682;-70
2023/01/12 01:27:38;;;;;;;27.00;11.60;;;;;;;-3.12;97.33;101788.08;109128;1252;74402;-70
2023/01/12 01:30:08;;;;;;;27.10;12.00;;;;;;;-3.11;97.14;101789.27;108903;1255;61703;-70
2023/01/12 01:32:37;;;;;;;21.80;10.10;;;;;;;-3.21;97.75;101781.41;109098;1251;61747;-70
2023/01/12 01:35:06;;;;;;;26.40;11.50;;;;;;;-3.17;97.74;101782.10;109139;1251;73491;-70
2023/01/12 01:37:35;;;;;;;23.30;11.40;;;;;;;-3.24;98.39;101783.45;109108;1251;70327;-70
2023/01/12 01:40:05;;;;;;;20.90;10.80;;;;;;;-3.29;98.47;101783.61;109161;1251;68700;-70
2023/01/12 01:42:33;;;;;;;23.00;10.60;;;;;;;-3.28;98.31;101783.44;109090;1254;73113;-71
2023/01/12 01:45:04;;;;;;;23.40;10.50;;;;;;;-3.23;98.75;101782.09;109200;1253;60870;-70
2023/01/12 01:47:39;;;;;;;30.10;11.50;;;;;;;-3.19;98.58;101779.20;108965;1251;60344;-70
2023/01/12 01:50:21;;;;;;;29.20;11.10;;;;;;;-3.20;98.75;101778.35;109095;1251;71620;-70
2023/01/12 01:52:58;;;;;;;27.60;11.80;;;;;;;-3.21;98.22;101779.88;108991;1250;71765;-70
2023/01/12 01:55:36;;;;;;;26.30;12.10;;;;;;;-3.17;98.36;101777.66;109191;1251;71640;-69
2023/01/12 01:58:15;;;;;;;24.10;11.10;;;;;;;-3.23;98.46;101778.67;109205;1251;73563;-70
2023/01/12 02:00:45;;;;;;;24.40;11.50;;;;;;;-3.23;98.80;101783.80;109072;1250;62316;-69
2023/01/12 02:03:16;;;;;;;25.20;11.60;;;;;;;-3.17;98.84;101782.43;108957;1251;60308;-69
2023/01/12 02:05:48;;;;;;;23.30;10.00;;;;;;;-3.19;97.93;101783.98;109176;1251;74297;-70
2023/01/12 02:08:38;;;;;;;25.00;11.60;;;;;;;-3.23;98.04;101787.54;108940;1251;72571;-69
2023/01/12 02:16:19;;;;;;;23.60;10.50;;;;;;;-3.24;98.16;101783.96;109194;1250;68146;-70
2023/01/12 02:17:29;;;;;;;24.00;10.70;;;;;;;-3.15;98.31;101779.03;109171;1254;61874;-70
2023/01/12 02:20:54;;;;;;;25.10;9.90;;;;;;;-3.14;97.85;101773.92;109011;1250;58654;-70
2023/01/12 02:23:40;;;;;;;22.10;10.70;;;;;;;-3.16;96.89;101768.30;109192;1251;74367;-70
2023/01/12 02:26:18;;;;;;;23.90;10.00;;;;;;;-3.23;96.60;101762.66;109198;1251;72632;-70
2023/01/12 02:29:19;;;;;;;21.50;10.90;;;;;;;-3.23;96.89;101753.30;109101;1250;68627;-69
2023/01/12 02:32:28;;;;;;;22.60;10.60;;;;;;;-3.18;97.30;101760.45;109176;1250;71214;-69
2023/01/12 02:35:10;;;;;;;27.40;11.00;;;;;;;-3.16;96.81;101759.09;109082;1251;60522;-70
2023/01/12 02:38:14;;;;;;;22.80;9.90;;;;;;;-3.19;97.20;101757.05;109093;1251;61080;-68
2023/01/12 02:40:58;;;;;;;22.60;10.90;;;;;;;-3.15;96.63;101743.58;109173;1254;72030;-69
2023/01/12 02:43:31;;;;;;;21.70;10.30;;;;;;;-3.20;96.65;101742.06;109042;1251;71973;-69
2023/01/12 02:46:10;;;;;;;;;;;;;;;-3.23;96.37;101743.24;109086;1251;70927;-70
2023/01/12 02:49:07;;;;;;;22.50;10.30;;;;;;;-3.23;96.51;101744.42;109021;1251;74093;-70
2023/01/12 02:52:03;;;;;;;20.50;8.40;;;;;;;-3.16;96.96;101744.27;108932;1254;59859;-70
2023/01/12 02:54:34;;;;;;;23.00;9.20;;;;;;;-3.22;97.03;101747.67;109099;1251;60314;-71
2023/01/12 02:57:07;;;;;;;19.50;10.00;;;;;;;-3.20;96.82;101747.34;109119;1251;73614;-70
2023/01/12 02:59:42;;;;;;;21.60;10.10;;;;;;;-3.13;96.57;101748.53;109076;1250;71240;-69
2023/01/12 03:02:17;;;;;;;23.40;11.10;;;;;;;-3.23;96.99;101752.95;109154;1251;70384;-70
2023/01/12 03:04:47;;;;;;;24.00;9.80;;;;;;;-3.31;97.03;101756.02;109061;1251;70485;-69
2023/01/12 03:07:32;;;;;;;25.80;10.10;;;;;;;-3.19;97.25;101759.95;109092;1250;62091;-70
2023/01/12 03:10:23;;;;;;;23.40;10.30;;;;;;;-3.16;96.60;101762.52;108878;1251;350739;-69
2023/01/12 03:12:54;;;;;;;21.00;9.90;;;;;;;-3.09;96.33;101752.46;109066;1250;71991;-70
2023/01/12 03:15:25;;;;;;;21.30;10.20;;;;;;;-3.11;96.11;101752.96;109050;1250;70255;-70
2023/01/12 03:18:11;;;;;;;19.40;9.60;;;;;;;-3.08;95.90;101753.98;109142;1250;69670;-71
2023/01/12 03:20:52;;;;;;;23.50;10.40;;;;;;;-3.08;95.66;101752.62;109053;1250;72206;-70
2023/01/12 03:23:45;;;;;;;20.20;10.40;;;;;;;-3.01;95.92;101752.45;109055;1254;61556;-70
2023/01/12 03:26:21;;;;;;;24.70;11.30;;;;;;;-2.89;95.99;101745.98;109161;1251;61547;-70
2023/01/12 03:29:01;;;;;;;23.10;10.10;;;;;;;-2.90;95.33;101751.77;108962;1250;74755;-70
2023/01/12 03:31:31;;;;;;;23.40;11.00;;;;;;;-3.03;95.49;101755.18;109158;1250;72197;-70
2023/01/12 03:34:00;;;;;;;24.30;10.10;;;;;;;-3.02;96.15;101748.37;108970;1251;70179;-70
2023/01/12 03:36:32;;;;;;;25.00;11.40;;;;;;;-2.94;96.14;101745.64;109081;1251;72224;-70
2023/01/12 03:39:42;;;;;;;25.90;10.80;;;;;;;-2.91;95.81;101741.38;109094;1251;61999;-70
2023/01/12 03:42:27;;;;;;;27.60;11.20;;;;;;;-2.97;94.68;101747.51;108968;1251;59896;-71
2023/01/12 03:45:13;;;;;;;22.00;10.70;;;;;;;-2.94;95.82;101752.12;108875;1251;72474;-69
2023/01/12 03:47:43;;;;;;;22.80;10.80;;;;;;;-2.96;95.11;101751.60;108969;1251;71818;-70
2023/01/12 03:50:30;;;;;;;26.00;11.20;;;;;;;-2.90;95.85;101751.27;108942;1251;69406;-70
2023/01/12 03:53:01;;;;;;;24.90;11.00;;;;;;;-2.92;95.15;101745.64;109010;1251;73794;-70
2023/01/12 03:55:34;;;;;;;25.10;10.80;;;;;;;-2.88;95.36;101743.26;108946;1254;60157;-69
2023/01/12 03:58:03;;;;;;;27.00;11.30;;;;;;;-2.87;95.28;101739.33;108905;1251;61258;-69
2023/01/12 04:00:32;;;;;;;24.90;11.10;;;;;;;-2.92;95.09;101739.67;108751;1254;72922;-69
2023/01/12 04:03:12;;;;;;;29.60;11.40;;;;;;;-2.90;95.74;101742.06;108930;1251;70299;-70
2023/01/12 04:05:43;;;;;;;24.50;10.30;;;;;;;-2.91;95.46;101737.13;108890;1251;68708;-70
2023/01/12 04:08:15;;;;;;;21.10;10.00;;;;;;;-2.89;95.21;101746.66;108654;1251;71987;-71
2023/01/12 04:10:44;;;;;;;22.20;10.40;;;;;;;-2.90;95.33;101762.86;108635;1254;60874;-70
2023/01/12 04:13:13;;;;;;;25.60;11.80;;;;;;;-3.00;95.44;101764.73;108736;1251;61140;-72
2023/01/12 04:15:42;;;;;;;23.70;10.10;;;;;;;-3.03;96.07;101748.71;108917;1251;72861;-70
2023/01/12 04:18:12;;;;;;;27.30;11.00;;;;;;;-3.00;95.76;101745.46;109013;1251;72236;-71
2023/01/12 04:20:41;;;;;;;25.70;10.80;;;;;;;-3.00;96.05;101744.96;108939;1251;70071;-70
2023/01/12 04:23:09;;;;;;;30.20;12.00;;;;;;;-3.03;96.15;101740.53;109024;1251;73771;-73
2023/01/12 04:25:38;;;;;;;24.70;11.40;;;;;;;-3.05;96.29;101756.22;109066;1253;60963;-71
2023/01/12 04:28:07;;;;;;;25.80;10.80;;;;;;;-2.95;96.41;101761.15;109049;1251;60270;-71
2023/01/12 04:30:36;;;;;;;31.50;11.40;;;;;;;-2.92;95.58;101760.30;109075;1251;73825;-71
2023/01/12 04:33:08;;;;;;;28.20;10.90;;;;;;;-2.91;95.84;101749.39;109096;1250;72688;-71
2023/01/12 04:35:36;;;;;;;27.70;11.60;;;;;;;-2.90;95.53;101752.11;109132;1250;70132;-71
2023/01/12 04:38:07;;;;;;;34.90;12.60;;;;;;;-2.91;95.76;101759.95;109158;1250;71706;-71
2023/01/12 04:40:36;;;;;;;30.70;12.20;;;;;;;-2.87;95.61;101758.60;109061;1254;60143;-71
2023/01/12 04:43:09;;;;;;;26.90;11.50;;;;;;;-2.84;95.15;101750.91;109281;1250;59622;-71
2023/01/12 04:45:40;;;;;;;;;;;;;;;-2.85;95.65;101754.17;109304;1251;72381;-70
2023/01/12 04:48:12;;;;;;;25.30;11.90;;;;;;;-2.89;95.65;101752.80;109227;1253;68525;-73
2023/01/12 04:50:43;;;;;;;31.20;12.00;;;;;;;-2.92;96.13;101746.48;109147;1250;71125;-72
2023/01/12 04:53:12;;;;;;;28.20;12.10;;;;;;;-2.91;95.96;101753.83;109281;1251;72392;-71
2023/01/12 04:55:43;;;;;;;28.20;12.20;;;;;;;-2.85;96.17;101757.40;109291;1251;60299;-71
2023/01/12 04:58:11;;;;;;;30.20;12.00;;;;;;;-2.80;96.69;101772.23;109107;1250;59327;-72
2023/01/12 05:00:41;;;;;;;28.60;11.10;;;;;;;-2.89;96.14;101786.04;109208;1250;71869;-71
2023/01/12 05:03:14;;;;;;;28.60;11.80;;;;;;;-2.82;96.13;101787.58;109243;1250;71516;-73
2023/01/12 05:05:43;;;;;;;;;;;;;;;-2.77;96.02;101796.61;109221;1251;69588;-74
2023/01/12 05:11:00;;;;;;;35.20;13.10;;;;;;;-2.85;95.61;101788.94;109193;1250;60977;-71
2023/01/12 05:13:30;;;;;;;26.10;12.30;;;;;;;-2.90;96.31;101787.91;109212;1251;60750;-71
2023/01/12 05:16:14;;;;;;;36.10;14.80;;;;;;;-2.82;96.90;101782.46;109168;1251;71542;-71
2023/01/12 05:18:45;;;;;;;28.60;12.70;;;;;;;-2.78;96.21;101784.84;109321;1250;70398;-71
2023/01/12 05:21:16;;;;;;;31.40;12.70;;;;;;;-2.77;96.23;101783.81;109178;1250;70477;-71
2023/01/12 05:23:45;;;;;;;32.20;12.20;;;;;;;-2.62;95.91;101783.64;109144;1250;72543;-71
2023/01/12 05:26:14;;;;;;;25.20;12.00;;;;;;;-2.58;95.58;101792.50;109262;1250;60475;-71
2023/01/12 05:28:46;;;;;;;35.50;13.50;;;;;;;-2.58;95.71;101798.14;109255;1250;58361;-71
2023/01/12 05:31:15;;;;;;;32.40;13.70;;;;;;;-2.59;95.46;101797.63;109214;1249;73554;-71
2023/01/12 05:33:45;;;;;;;34.20;11.80;;;;;;;-2.53;96.00;101792.17;109047;1251;72496;-71
2023/01/12 05:36:16;;;;;;;34.90;12.40;;;;;;;-2.50;94.94;101787.22;109186;1251;69002;-73
2023/01/12 05:38:45;;;;;;;29.10;12.40;;;;;;;-2.53;95.72;101785.33;108995;1250;73957;-73
2023/01/12 05:41:14;;;;;;;32.70;12.70;;;;;;;-2.59;95.38;101781.42;109043;1250;62689;-75
2023/01/12 05:43:53;;;;;;;31.00;13.40;;;;;;;-2.60;95.36;101782.11;109200;1250;61763;-72
2023/01/12 05:46:29;;;;;;;30.40;13.40;;;;;;;-2.42;95.82;101793.17;108715;1257;72512;-72
2023/01/12 05:48:58;;;;;;;33.60;14.60;;;;;;;-2.38;94.94;101799.48;109092;1251;70558;-72
2023/01/12 05:51:29;;;;;;;31.00;13.80;;;;;;;-2.39;94.49;101795.73;109070;1251;70250;-71
2023/01/12 05:53:58;;;;;;;33.50;13.80;;;;;;;-2.34;94.55;101803.91;109230;1251;72331;-74
2023/01/12 05:56:27;;;;;;;39.10;15.30;;;;;;;-2.30;94.16;101799.30;109189;1249;61316;-72
2023/01/12 05:58:59;;;;;;;29.90;13.50;;;;;;;-2.31;94.42;101797.92;109259;1251;60126;-73
2023/01/12 06:01:29;;;;;;;29.40;12.70;;;;;;;-2.42;94.35;101805.12;109179;1250;73180;-72
2023/01/12 06:04:00;;;;;;;32.30;13.30;;;;;;;-2.37;94.88;101793.17;108995;1254;69996;-72
2023/01/12 06:06:30;;;;;;;23.80;10.80;;;;;;;-2.47;94.45;101781.41;109157;1250;69699;-72
2023/01/12 06:09:00;;;;;;;26.00;12.90;;;;;;;-2.58;94.63;101780.06;108969;1250;75310;-72
2023/01/12 06:14:16;;;;;;;25.60;11.40;;;;;;;-2.66;95.25;101780.23;109275;1250;60203;-73
2023/01/12 06:16:45;;;;;;;27.60;12.20;;;;;;;-2.69;95.36;101778.70;109215;1253;73605;-72
2023/01/12 06:19:14;;;;;;;30.00;13.70;;;;;;;-2.73;95.64;101781.09;109155;1251;69495;-71
2023/01/12 06:21:43;;;;;;;33.90;14.80;;;;;;;-2.79;96.07;101789.45;109274;1251;68596;-71
2023/01/12 06:24:12;;;;;;;31.90;15.20;;;;;;;-2.70;96.86;101800.36;109234;1250;72174;-72
2023/01/12 06:26:43;;;;;;;31.60;12.60;;;;;;;-2.70;96.21;101800.19;109264;1250;62047;-71
2023/01/12 06:29:12;;;;;;;27.30;12.50;;;;;;;-2.65;95.74;101800.36;109186;1250;60326;-71
2023/01/12 06:31:42;;;;;;;30.30;13.10;;;;;;;-2.65;95.91;101813.49;109217;1251;71643;-71
2023/01/12 06:34:12;;;;;;;42.60;13.80;;;;;;;-2.67;95.70;101814.52;109228;1251;70296;-73
2023/01/12 06:36:41;;;;;;;36.70;12.50;;;;;;;-2.70;96.18;101803.77;108858;1250;70858;-71
2023/01/12 06:39:13;;;;;;;35.60;13.80;;;;;;;-2.69;96.00;101808.38;109024;1250;74327;-73
2023/01/12 06:44:30;;;;;;;28.40;12.50;;;;;;;-2.57;94.89;101822.52;109032;1255;61638;-73
2023/01/12 06:47:02;;;;;;;29.70;13.30;;;;;;;-2.62;94.09;101832.94;109102;1250;74919;-73
2023/01/12 06:49:31;;;;;;;32.70;13.00;;;;;;;-2.60;94.05;101841.80;108911;1257;69525;-71
2023/01/12 06:52:00;;;;;;;46.10;18.60;;;;;;;-2.59;93.75;101825.77;109164;1251;68672;-72
2023/01/12 06:54:29;;;;;;;37.70;13.30;;;;;;;-2.58;94.01;101822.02;108991;1254;71919;-71
2023/01/12 06:56:58;;;;;;;34.90;12.00;;;;;;;-2.62;93.12;101822.02;109198;1251;60626;-72
2023/01/12 06:59:27;;;;;;;37.90;14.80;;;;;;;-2.61;93.08;101826.11;109169;1250;59969;-73
2023/01/12 07:01:56;;;;;;;30.10;12.70;;;;;;;-2.60;92.68;101819.29;109128;1249;73610;-73
2023/01/12 07:04:25;;;;;;;32.40;13.80;;;;;;;-2.55;93.11;101824.41;108988;1251;72156;-73
2023/01/12 07:06:55;;;;;;;32.90;14.00;;;;;;;-2.51;92.02;101829.86;108864;1254;69226;-73
2023/01/12 07:09:24;;;;;;;29.30;13.60;;;;;;;-2.55;91.84;101831.40;108960;1250;73073;-72
2023/01/12 07:11:53;;;;;;;26.10;12.20;;;;;;;-2.53;91.71;101835.84;108961;1251;62035;-72
2023/01/12 07:14:21;;;;;;;26.80;12.60;;;;;;;-2.62;91.49;101841.13;108989;1251;61612;-71
2023/01/12 07:16:51;;;;;;;31.30;13.80;;;;;;;-2.71;91.66;101848.80;108975;1254;73631;-71
2023/01/12 07:19:20;;;;;;;31.70;13.20;;;;;;;-2.72;91.94;101846.91;108863;1254;70265;-72
2023/01/12 07:21:49;;;;;;;26.90;12.70;;;;;;;-2.70;92.23;101850.50;108872;1254;68106;-71
2023/01/12 07:24:18;;;;;;;27.20;13.80;;;;;;;-2.49;93.35;101847.26;108993;1251;71999;-73
2023/01/12 07:26:48;;;;;;;42.70;15.10;;;;;;;-2.53;92.56;101843.67;108968;1250;62210;-71
2023/01/12 07:29:17;;;;;;;29.90;13.10;;;;;;;-2.54;92.12;101850.00;108961;1252;61556;-70
2023/01/12 07:31:47;;;;;;;25.60;12.60;;;;;;;-2.56;91.80;101850.67;108851;1254;72441;-72
2023/01/12 07:34:16;;;;;;;37.60;13.20;;;;;;;-2.63;91.24;101838.22;108949;1251;70912;-72
2023/01/12 07:36:48;;;;;;;29.40;11.00;;;;;;;-2.52;91.83;101832.09;108903;1254;69481;-72
2023/01/12 07:39:18;;;;;;;29.50;12.50;;;;;;;-2.48;90.66;101826.79;109072;1251;72125;-72
2023/01/12 07:44:36;;;;;;;34.10;11.90;;;;;;;-2.55;90.73;101829.69;109055;1250;61016;-72
2023/01/12 07:47:04;;;;;;;33.50;12.00;;;;;;;-2.48;90.85;101837.71;108898;1254;73496;-72
2023/01/12 07:49:33;;;;;;;26.20;12.00;;;;;;;-2.45;90.22;101839.23;109076;1251;69838;-78
2023/01/12 07:52:02;;;;;;;37.80;12.60;;;;;;;-2.40;89.59;101833.95;109142;1251;67874;-72
2023/01/12 07:54:32;;;;;;;23.40;11.30;;;;;;;-2.29;89.79;101819.27;109011;1253;72383;-72
2023/01/12 07:57:01;;;;;;;24.70;12.30;;;;;;;-2.38;88.85;101817.73;108920;1253;59416;-73
2023/01/12 07:59:30;;;;;;;37.30;14.40;;;;;;;-2.32;90.02;101822.50;109013;1250;61235;-71
2023/01/12 08:01:59;;;;;;;28.30;14.00;;;;;;;-2.28;88.55;101816.36;109014;1250;74701;-72
2023/01/12 08:04:28;;;;;;;24.30;13.30;;;;;;;-2.39;88.81;101821.50;109009;1249;73425;-72
2023/01/12 08:06:56;;;;;;;30.60;13.50;;;;;;;-2.42;88.25;101827.98;109027;1249;70947;-72
2023/01/12 08:09:26;;;;;;;31.20;14.10;;;;;;;-2.39;88.10;101823.55;109045;1249;72303;-73
2023/01/12 08:11:55;;;;;;;38.40;16.20;;;;;;;-2.30;88.26;101831.55;109162;1251;58697;-72
2023/01/12 08:14:32;;;;;;;36.70;16.50;;;;;;;-2.39;87.39;101845.37;109140;1249;60348;-72
2023/01/12 08:17:05;;;;;;;37.20;15.30;;;;;;;-2.47;87.90;101850.50;109011;1251;72163;-73
2023/01/12 08:19:58;;;;;;;35.50;16.00;;;;;;;-2.46;87.87;101845.89;109150;1250;72189;-71
2023/01/12 08:22:33;;;;;;;25.50;11.90;;;;;;;-2.38;88.33;101854.08;109182;1250;69376;-71
2023/01/12 08:25:31;;;;;;;33.80;15.70;;;;;;;-2.36;88.27;101863.13;109022;1250;73167;-72
2023/01/12 08:28:05;;;;;;;31.40;14.10;;;;;;;-2.26;88.34;101851.33;109256;1251;60187;-73
2023/01/12 08:30:34;;;;;;;30.40;13.20;;;;;;;-2.16;88.41;101852.17;109349;1249;61300;-73
2023/01/12 08:33:03;;;;;;;28.80;13.50;;;;;;;-2.19;88.74;101844.52;109311;1249;72893;-73
2023/01/12 08:35:34;;;;;;;35.20;13.80;;;;;;;-2.32;89.55;101843.84;109297;1250;70853;-72
2023/01/12 08:38:03;;;;;;;23.20;12.50;;;;;;;-2.19;89.33;101849.80;109260;1250;70418;-73
2023/01/12 08:44:00;;;;;;;26.60;12.10;;;;;;;-1.93;88.66;101854.35;109246;1251;62848;-72
2023/01/12 08:46:07;;;;;;;29.80;12.00;;;;;;;-2.04;87.91;101850.95;109152;1250;59355;-73
2023/01/12 08:48:37;;;;;;;27.30;13.30;;;;;;;-1.92;88.11;101857.41;109196;1250;71818;-73
2023/01/12 08:51:08;;;;;;;27.30;13.10;;;;;;;-1.98;88.56;101857.09;108903;1250;69601;-73
2023/01/12 08:53:36;;;;;;;38.50;14.90;;;;;;;-1.88;87.57;101853.31;109073;1249;70468;-73
2023/01/12 08:56:06;;;;;;;28.00;12.30;;;;;;;-1.81;87.26;101857.73;109206;1251;71910;-75
2023/01/12 08:58:35;;;;;;;29.90;14.10;;;;;;;-1.91;87.28;101859.29;109001;1254;60464;-72
2023/01/12 09:01:13;;;;;;;30.90;13.90;;;;;;;-1.72;87.29;101853.77;109251;1250;59243;-71
2023/01/12 09:03:45;;;;;;;23.70;11.90;;;;;;;-1.71;86.33;101868.62;109065;1250;72221;-73
2023/01/12 09:06:22;;;;;;;31.50;12.90;;;;;;;-1.71;86.23;101881.27;109046;1250;68926;-73
2023/01/12 09:09:00;;;;;;;29.10;12.60;;;;;;;-1.71;86.19;101874.44;109176;1250;69106;-72
2023/01/12 09:11:30;;;;;;;26.20;13.10;;;;;;;-1.55;86.09;101865.33;109215;1250;70630;-71
2023/01/12 09:13:59;;;;;;;26.80;13.00;;;;;;;-1.46;86.58;101863.75;108947;1253;58467;-74
2023/01/12 09:16:30;;;;;;;23.60;11.70;;;;;;;-1.50;85.92;101861.05;109064;1250;61507;-72
2023/01/12 09:19:00;;;;;;;24.60;11.70;;;;;;;-1.47;86.12;101865.31;109132;1250;71582;-72
2023/01/12 09:21:30;;;;;;;28.10;12.90;;;;;;;-1.50;87.58;101869.06;109127;1250;72121;-74
2023/01/12 09:23:59;;;;;;;24.80;12.00;;;;;;;-1.60;87.88;101860.73;109193;1250;69114;-74
2023/01/12 09:26:30;;;;;;;22.30;11.20;;;;;;;-1.56;87.86;101851.99;109293;1251;73805;-72
2023/01/12 09:29:02;;;;;;;20.00;11.00;;;;;;;-1.60;89.44;101850.32;109190;1250;62091;-72
2023/01/12 09:31:32;;;;;;;22.70;11.50;;;;;;;-1.49;89.92;101854.54;108940;1250;61151;-72
2023/01/12 09:34:01;;;;;;;25.00;12.90;;;;;;;-1.29;90.01;101852.56;109277;1250;73117;-72
2023/01/12 09:36:34;;;;;;;22.20;11.90;;;;;;;-1.14;89.66;101847.86;109106;1250;69520;-74
2023/01/12 09:39:04;;;;;;;23.20;12.10;;;;;;;-1.00;90.36;101843.67;109096;1250;69677;-73
2023/01/12 09:48:02;;;;;;;21.60;10.80;;;;;;;-0.95;88.86;101827.73;108721;1250;59232;-77
2023/01/12 09:50:47;;;;;;;22.00;10.30;;;;;;;-0.77;88.59;101829.48;109160;1250;71426;-75
2023/01/12 09:53:26;;;;;;;20.40;10.20;;;;;;;-0.55;88.78;101821.44;109181;1250;70303;-73
2023/01/12 09:56:15;;;;;;;18.10;9.90;;;;;;;-0.46;86.95;101812.48;109225;1250;69692;-73
2023/01/12 09:59:06;;;;;;;18.70;9.60;;;;;;;-0.60;87.42;101810.88;108899;1250;74420;-72
2023/01/12 10:01:36;;;;;;;19.50;10.80;;;;;;;-0.53;87.41;101807.57;109223;1251;59505;-72
2023/01/12 10:04:05;;;;;;;18.50;9.10;;;;;;;-0.62;87.23;101804.39;109160;1250;60397;-73
2023/01/12 10:06:35;;;;;;;16.70;8.70;;;;;;;-0.55;87.19;101804.00;109168;1249;72318;-75
2023/01/12 10:09:18;;;;;;;19.00;10.10;;;;;;;-0.74;88.64;101801.59;109050;1250;71466;-72
2023/01/12 10:12:33;;;;;;;21.00;11.00;;;;;;;-0.81;87.52;101803.87;109073;1250;70022;-72
2023/01/12 10:15:35;;;;;;;18.40;10.10;;;;;;;-0.88;88.09;101798.27;109125;1250;74246;-72
2023/01/12 10:18:50;;;;;;;17.00;8.90;;;;;;;-0.89;88.61;101792.98;109225;1251;60897;-71
2023/01/12 10:21:22;;;;;;;22.70;10.20;;;;;;;-0.81;88.50;101791.55;108391;1257;60951;-72
2023/01/12 10:23:53;;;;;;;22.10;10.40;;;;;;;-0.85;89.09;101786.95;108909;1249;71353;-71
2023/01/12 10:26:27;;;;;;;23.90;12.40;;;;;;;-0.88;90.24;101790.75;109128;1249;70479;-72
2023/01/12 10:28:57;;;;;;;26.40;13.20;;;;;;;-0.78;90.08;101788.96;108986;1249;68669;-75
2023/01/12 10:31:26;;;;;;;19.80;11.40;;;;;;;-0.73;90.41;101793.70;109254;1250;73027;-73
2023/01/12 10:34:10;;;;;;;22.90;11.10;;;;;;;-0.87;89.49;101791.76;109157;1249;61860;-72
2023/01/12 10:36:48;;;;;;;21.50;11.80;;;;;;;-0.79;90.20;101790.50;108947;1249;58829;-73
2023/01/12 10:39:42;;;;;;;23.50;13.80;;;;;;;-0.81;89.76;101789.67;109207;1251;70799;-72
2023/01/12 10:45:16;;;;;;;18.90;10.80;;;;;;;-0.71;90.29;101787.19;109244;1249;70629;-72
2023/01/12 10:47:46;;;;;;;23.50;10.90;;;;;;;-0.74;89.42;101774.73;109222;1250;72465;-73
2023/01/12 10:50:22;;;;;;;19.10;10.80;;;;;;;-0.67;89.26;101771.24;108954;1253;60772;-73
2023/01/12 10:53:05;;;;;;;22.60;11.60;;;;;;;-0.73;90.89;101767.70;109225;1249;59640;-74
2023/01/12 10:55:42;;;;;;;23.60;11.50;;;;;;;-0.71;90.06;101765.80;109230;1250;74384;-75
2023/01/12 10:58:29;;;;;;;21.40;11.60;;;;;;;-0.61;90.02;101767.77;109250;1249;71354;-74
2023/01/12 11:00:58;;;;;;;22.40;11.60;;;;;;;-0.55;89.32;101752.99;109048;1250;70535;-75
2023/01/12 11:03:36;;;;;;;23.30;12.00;;;;;;;-0.64;89.86;101737.50;109037;1249;71750;-74
2023/01/12 11:06:26;;;;;;;24.90;12.20;;;;;;;-0.60;90.07;101737.98;109013;1253;60502;-74
2023/01/12 11:08:56;;;;;;;23.40;12.00;;;;;;;-0.58;89.65;101753.54;109140;1250;61049;-73
2023/01/12 11:11:32;;;;;;;23.70;12.30;;;;;;;-0.46;89.87;101746.55;109032;1250;72567;-73
2023/01/12 11:14:03;;;;;;;21.90;11.40;;;;;;;-0.54;90.17;101733.13;109022;1250;72652;-75
2023/01/12 11:16:50;;;;;;;26.90;11.90;;;;;;;-0.46;88.88;101732.55;108786;1249;68255;-73
2023/01/12 11:19:30;;;;;;;24.70;12.40;;;;;;;-0.35;88.29;101734.64;109080;1249;71104;-74
2023/01/12 11:22:21;;;;;;;27.90;12.90;;;;;;;-0.36;89.56;101731.06;109013;1250;60930;-73
2023/01/12 11:25:01;;;;;;;27.50;14.90;;;;;;;-0.30;90.12;101729.45;109153;1249;61150;-74
2023/01/12 11:27:42;;;;;;;20.70;11.50;;;;;;;-0.30;89.31;101721.58;109165;1249;74403;-74
2023/01/12 11:30:20;;;;;;;23.30;12.70;;;;;;;-0.25;88.37;101721.52;109206;1251;69833;-73
2023/01/12 11:33:14;;;;;;;22.20;11.80;;;;;;;-0.26;87.25;101715.88;109195;1249;68599;-72
2023/01/12 11:35:57;;;;;;;22.70;12.60;;;;;;;-0.25;88.83;101709.02;109150;1249;71900;-73
2023/01/12 11:38:37;;;;;;;24.80;11.70;;;;;;;-0.15;88.78;101710.10;109141;1250;58992;-73
2023/01/12 11:41:19;;;;;;;20.00;11.80;;;;;;;-0.01;89.72;101714.21;109173;1249;60871;-73
2023/01/12 11:43:57;;;;;;;20.70;10.70;;;;;;;0.01;87.97;101715.40;109157;1249;74203;-72
2023/01/12 11:46:49;;;;;;;22.90;11.80;;;;;;;-0.00;87.23;101716.43;109230;1249;70715;-73
2023/01/12 11:49:35;;;;;;;22.20;12.40;;;;;;;-0.02;88.46;101714.56;109162;1250;69778;-74
2023/01/12 11:52:08;;;;;;;21.40;12.00;;;;;;;-0.11;88.09;101719.47;109150;1250;71055;-72
2023/01/12 11:54:38;;;;;;;25.80;12.80;;;;;;;-0.03;89.01;101714.24;108978;1250;60287;-75
2023/01/12 11:57:44;;;;;;;25.40;12.70;;;;;;;0.04;87.85;101714.66;109158;1249;61274;-73
2023/01/12 12:00:33;;;;;;;27.60;13.00;;;;;;;-0.11;89.37;101715.71;109234;1249;74939;-73
2023/01/12 12:03:42;;;;;;;23.60;12.60;;;;;;;-0.26;90.29;101716.56;109117;1251;70683;-72
2023/01/12 12:06:40;;;;;;;23.00;12.00;;;;;;;-0.12;90.47;101714.02;109172;1249;69912;-72